createdAt,value
2019-02-17T00:01:30.897Z,24.00
2019-02-17T00:04:01.297Z,23.50
2019-02-17T00:06:31.706Z,24.00
2019-02-17T00:09:03.764Z,23.50
2019-02-17T00:11:35.393Z,23.30
2019-02-17T00:14:05.949Z,23.50
2019-02-17T00:16:36.352Z,23.20
2019-02-17T00:19:07.061Z,22.50
2019-02-17T00:21:37.437Z,22.80
2019-02-17T00:24:07.760Z,22.40
2019-02-17T00:26:38.443Z,21.70
2019-02-17T00:29:08.799Z,21.40
2019-02-17T00:31:39.186Z,21.20
2019-02-17T00:34:09.555Z,20.80
2019-02-17T00:36:39.894Z,21.00
2019-02-17T00:39:10.511Z,20.90
2019-02-17T00:41:40.930Z,20.70
2019-02-17T00:44:11.893Z,20.20
2019-02-17T00:46:42.602Z,20.20
2019-02-17T00:49:13.209Z,19.60
2019-02-17T00:51:43.832Z,19.80
2019-02-17T00:54:14.498Z,19.20
2019-02-17T00:56:44.911Z,19.40
2019-02-17T00:59:15.292Z,18.90
2019-02-17T01:01:45.952Z,19.10
2019-02-17T01:04:16.594Z,18.80
2019-02-17T01:06:47.610Z,18.30
2019-02-17T01:09:17.978Z,18.50
2019-02-17T01:11:48.609Z,18.60
2019-02-17T01:14:19.384Z,18.90
2019-02-17T01:16:50.062Z,18.90
2019-02-17T01:19:20.711Z,19.80
2019-02-17T01:21:51.058Z,19.50
2019-02-17T01:24:21.976Z,19.80
2019-02-17T01:26:52.395Z,20.30
2019-02-17T01:29:22.752Z,20.60
2019-02-17T01:31:53.378Z,20.70
2019-02-17T01:34:23.747Z,20.80
2019-02-17T01:36:54.090Z,21.30
2019-02-17T01:39:24.788Z,21.30
2019-02-17T01:41:55.424Z,21.60
2019-02-17T01:44:25.729Z,21.30
2019-02-17T01:46:56.096Z,21.00
2019-02-17T01:49:26.495Z,21.10
2019-02-17T01:51:57.141Z,21.10
2019-02-17T01:54:28.062Z,20.90
2019-02-17T01:56:58.597Z,21.20
2019-02-17T01:59:30.814Z,21.20
2019-02-17T02:02:01.646Z,21.10
2019-02-17T02:04:31.999Z,21.10
2019-02-17T02:07:02.601Z,21.20
2019-02-17T02:09:34.141Z,21.40
2019-02-17T02:12:04.786Z,21.30
2019-02-17T02:14:35.166Z,21.60
2019-02-17T02:17:05.779Z,21.40
2019-02-17T02:19:36.138Z,20.80
2019-02-17T02:22:06.734Z,21.20
2019-02-17T02:24:37.368Z,21.50
2019-02-17T02:27:08.117Z,21.40
2019-02-17T02:29:41.077Z,21.60
2019-02-17T02:32:10.440Z,21.30
2019-02-17T02:34:41.183Z,21.30
2019-02-17T02:37:11.983Z,20.90
2019-02-17T02:39:42.380Z,22.00
2019-02-17T02:42:13.041Z,21.90
2019-02-17T02:44:43.509Z,21.70
2019-02-17T02:47:14.272Z,22.20
2019-02-17T02:49:45.048Z,22.20
2019-02-17T02:52:17.943Z,21.90
2019-02-17T02:54:48.370Z,22.10
2019-02-17T02:57:18.785Z,22.00
2019-02-17T02:59:52.386Z,21.80
2019-02-17T03:02:21.208Z,21.70
2019-02-17T03:04:51.588Z,22.00
2019-02-17T03:07:22.688Z,22.10
2019-02-17T03:09:53.316Z,22.10
2019-02-17T03:12:24.319Z,22.40
2019-02-17T03:14:54.696Z,22.50
2019-02-17T03:17:25.448Z,22.50
2019-02-17T03:19:55.831Z,22.50
2019-02-17T03:22:26.546Z,22.40
2019-02-17T03:24:56.965Z,22.40
2019-02-17T03:27:27.970Z,22.20
2019-02-17T03:30:05.194Z,21.60
2019-02-17T03:32:30.640Z,21.90
2019-02-17T03:35:01.338Z,22.20
2019-02-17T03:37:32.001Z,22.20
2019-02-17T03:40:02.389Z,22.10
2019-02-17T03:42:32.906Z,22.30
2019-02-17T03:45:03.467Z,22.50
2019-02-17T03:47:34.237Z,22.30
2019-02-17T03:50:04.980Z,22.60
2019-02-17T03:52:35.670Z,22.50
2019-02-17T03:55:06.070Z,22.70
2019-02-17T03:57:36.770Z,22.60
2019-02-17T04:00:16.483Z,22.40
2019-02-17T04:02:39.438Z,22.80
2019-02-17T04:05:10.135Z,22.80
2019-02-17T04:07:40.775Z,23.00
2019-02-17T04:10:11.470Z,22.90
2019-02-17T04:12:41.852Z,22.90
2019-02-17T04:15:12.562Z,23.10
2019-02-17T04:17:43.254Z,23.40
2019-02-17T04:20:13.993Z,23.10
2019-02-17T04:22:44.660Z,23.20
2019-02-17T04:25:15.068Z,23.30
2019-02-17T04:27:45.468Z,23.50
2019-02-17T04:30:27.930Z,23.60
2019-02-17T04:32:47.865Z,23.10
2019-02-17T04:35:18.578Z,23.30
2019-02-17T04:37:48.937Z,23.40
2019-02-17T04:40:19.348Z,23.30
2019-02-17T04:42:49.979Z,23.50
2019-02-17T04:45:20.742Z,23.90
2019-02-17T04:47:51.123Z,23.70
2019-02-17T04:50:22.103Z,24.40
2019-02-17T04:52:52.978Z,24.20
2019-02-17T04:55:23.673Z,24.40
2019-02-17T04:57:54.366Z,23.70
2019-02-17T05:00:25.090Z,23.50
2019-02-17T05:02:56.005Z,23.20
2019-02-17T05:05:26.423Z,23.00
2019-02-17T05:07:57.074Z,22.70
2019-02-17T05:10:27.460Z,22.70
2019-02-17T05:12:58.357Z,22.50
2019-02-17T05:15:28.671Z,23.40
2019-02-17T05:17:59.040Z,23.40
2019-02-17T05:20:29.423Z,23.00
2019-02-17T05:23:00.055Z,23.10
2019-02-17T05:25:30.755Z,23.80
2019-02-17T05:28:01.169Z,23.50
2019-02-17T05:30:31.903Z,23.00
2019-02-17T05:33:02.537Z,23.30
2019-02-17T05:35:32.965Z,23.40
2019-02-17T05:38:03.695Z,23.50
2019-02-17T05:40:36.427Z,23.30
2019-02-17T05:43:06.437Z,23.30
2019-02-17T05:45:36.894Z,23.40
2019-02-17T05:48:07.288Z,23.40
2019-02-17T05:50:37.690Z,22.70
2019-02-17T05:53:08.078Z,23.70
2019-02-17T05:55:38.453Z,23.80
2019-02-17T05:58:08.868Z,23.60
2019-02-17T06:00:40.095Z,24.00
2019-02-17T06:03:10.523Z,24.10
2019-02-17T06:05:41.178Z,23.90
2019-02-17T06:08:11.589Z,23.40
2019-02-17T06:10:42.231Z,23.40
2019-02-17T06:13:12.640Z,24.00
2019-02-17T06:15:42.990Z,24.00
2019-02-17T06:18:13.410Z,22.70
2019-02-17T06:20:43.937Z,23.10
2019-02-17T06:23:14.610Z,23.20
2019-02-17T06:25:45.267Z,23.20
2019-02-17T06:28:15.661Z,23.20
2019-02-17T06:30:46.321Z,23.00
2019-02-17T06:33:17.363Z,23.50
2019-02-17T06:35:48.087Z,23.40
2019-02-17T06:38:18.450Z,22.50
2019-02-17T06:40:48.819Z,23.60
2019-02-17T06:43:19.483Z,23.60
2019-02-17T06:45:50.402Z,23.60
2019-02-17T06:48:21.404Z,23.80
2019-02-17T06:50:52.221Z,23.50
2019-02-17T06:53:22.861Z,23.60
2019-02-17T06:56:14.858Z,23.70
2019-02-17T06:58:45.632Z,23.30
2019-02-17T07:01:24.400Z,22.90
2019-02-17T07:03:48.671Z,22.70
2019-02-17T07:06:31.758Z,23.00
2019-02-17T07:09:02.195Z,22.20
2019-02-17T07:11:33.064Z,22.30
2019-02-17T07:14:03.453Z,22.00
2019-02-17T07:16:33.761Z,21.50
2019-02-17T07:19:04.554Z,20.70
2019-02-17T07:21:35.425Z,19.90
2019-02-17T07:24:05.851Z,18.10
2019-02-17T07:26:36.495Z,17.40
2019-02-17T07:29:07.293Z,14.90
2019-02-17T07:31:38.574Z,12.40
2019-02-17T07:34:09.325Z,10.80
2019-02-17T07:36:40.032Z,8.60
2019-02-17T07:39:11.104Z,7.30
2019-02-17T07:41:41.477Z,5.70
2019-02-17T07:44:12.113Z,4.80
2019-02-17T07:46:42.508Z,3.10
2019-02-17T07:49:12.902Z,2.70
2019-02-17T07:51:43.573Z,1.00
2019-02-17T07:54:14.291Z,1.00
2019-02-17T07:56:44.932Z,1.00
2019-02-17T07:59:15.665Z,1.00
2019-02-17T08:01:46.427Z,1.00
2019-02-17T08:04:17.085Z,1.00
2019-02-17T08:06:47.763Z,1.00
2019-02-17T08:09:18.473Z,1.00
2019-02-17T08:11:48.851Z,1.00
2019-02-17T08:14:20.311Z,1.00
2019-02-17T08:16:50.702Z,1.00
2019-02-17T08:19:22.440Z,1.00
2019-02-17T08:21:53.162Z,1.00
2019-02-17T08:24:23.858Z,1.00
2019-02-17T08:26:54.564Z,1.00
2019-02-17T08:29:25.083Z,1.00
2019-02-17T08:31:56.270Z,1.00
2019-02-17T08:34:26.937Z,1.00
2019-02-17T08:36:57.601Z,1.00
2019-02-17T08:39:28.398Z,1.00
2019-02-17T08:41:58.749Z,1.00
2019-02-17T08:44:29.197Z,1.00
2019-02-17T08:46:59.642Z,1.00
2019-02-17T08:49:30.068Z,1.00
2019-02-17T08:52:00.963Z,1.00
2019-02-17T08:54:31.412Z,1.00
2019-02-17T08:57:01.785Z,1.00
2019-02-17T08:59:32.800Z,1.00
2019-02-17T09:02:05.917Z,1.00
2019-02-17T09:04:35.961Z,1.00
2019-02-17T09:07:06.566Z,1.00
2019-02-17T09:09:37.243Z,1.00
2019-02-17T09:12:07.599Z,1.00
2019-02-17T09:14:38.010Z,1.00
2019-02-17T09:17:08.420Z,1.00
2019-02-17T09:19:39.166Z,1.00
2019-02-17T09:22:09.538Z,1.00
2019-02-17T09:24:40.242Z,1.00
2019-02-17T09:27:10.570Z,1.00
2019-02-17T09:29:42.251Z,1.00
2019-02-17T09:32:16.339Z,1.00
2019-02-17T09:34:44.654Z,1.00
2019-02-17T09:37:15.457Z,1.00
2019-02-17T09:39:45.957Z,1.00
2019-02-17T09:42:16.302Z,1.00
2019-02-17T09:44:46.753Z,1.00
2019-02-17T09:47:17.057Z,1.00
2019-02-17T09:49:47.560Z,1.00
2019-02-17T09:52:18.089Z,1.00
2019-02-17T09:54:48.422Z,1.00
2019-02-17T09:57:19.143Z,1.00
2019-02-17T09:59:50.168Z,1.00
2019-02-17T10:02:26.625Z,1.00
2019-02-17T10:04:52.905Z,1.00
2019-02-17T10:07:24.240Z,1.00
2019-02-17T10:09:54.871Z,1.00
2019-02-17T10:12:25.277Z,1.00
2019-02-17T10:14:56.315Z,1.00
2019-02-17T10:17:26.723Z,1.00
2019-02-17T10:19:57.272Z,1.00
2019-02-17T10:22:27.939Z,1.00
2019-02-17T10:24:59.151Z,1.00
2019-02-17T10:27:30.816Z,1.00
2019-02-17T10:30:01.536Z,1.00
2019-02-17T10:32:38.417Z,1.00
2019-02-17T10:35:06.117Z,1.00
2019-02-17T10:37:36.516Z,1.00
2019-02-17T10:40:08.570Z,1.00
2019-02-17T10:42:39.076Z,1.00
2019-02-17T10:45:10.217Z,1.00
2019-02-17T10:47:40.607Z,1.00
2019-02-17T10:50:11.546Z,1.00
2019-02-17T10:52:42.054Z,1.00
2019-02-17T10:55:12.660Z,1.00
2019-02-17T10:57:43.167Z,1.00
2019-02-17T11:00:15.387Z,1.00
2019-02-17T11:02:47.446Z,1.00
2019-02-17T11:05:17.903Z,1.00
2019-02-17T11:07:49.347Z,1.00
2019-02-17T11:10:20.081Z,1.00
2019-02-17T11:12:50.779Z,1.00
2019-02-17T11:15:21.423Z,1.00
2019-02-17T11:17:51.815Z,1.00
2019-02-17T11:20:22.432Z,1.00
2019-02-17T11:22:52.800Z,1.00
2019-02-17T11:25:23.433Z,1.00
2019-02-17T11:27:53.942Z,1.00
2019-02-17T11:30:24.304Z,1.00
2019-02-17T11:32:57.826Z,1.00
2019-02-17T11:35:26.941Z,1.00
2019-02-17T11:37:57.410Z,1.00
2019-02-17T11:40:28.842Z,1.00
2019-02-17T11:42:59.245Z,1.00
2019-02-17T11:45:30.138Z,1.00
2019-02-17T11:48:00.555Z,1.00
2019-02-17T11:50:30.952Z,1.00
2019-02-17T11:53:01.678Z,1.00
2019-02-17T11:55:32.140Z,1.00
2019-02-17T11:58:03.467Z,1.00
2019-02-17T12:00:34.332Z,1.00
2019-02-17T12:03:08.102Z,1.00
2019-02-17T12:05:37.508Z,1.00
2019-02-17T12:08:07.870Z,1.00
2019-02-17T12:10:38.526Z,1.00
2019-02-17T12:13:09.201Z,1.00
2019-02-17T12:15:42.442Z,1.00
2019-02-17T12:18:15.427Z,1.00
2019-02-17T12:21:04.696Z,1.00
2019-02-17T12:23:39.615Z,1.00
2019-02-17T12:26:29.421Z,1.00
2019-02-17T12:29:07.267Z,1.00
2019-02-17T12:31:38.830Z,1.00
2019-02-17T12:34:10.342Z,1.00
2019-02-17T12:36:40.900Z,1.00
2019-02-17T12:39:11.713Z,1.00
2019-02-17T12:41:42.200Z,1.00
2019-02-17T12:44:12.927Z,1.00
2019-02-17T12:46:45.119Z,1.00
2019-02-17T12:49:15.964Z,1.00
2019-02-17T12:51:47.028Z,1.00
2019-02-17T12:54:17.735Z,1.00
2019-02-17T12:56:48.228Z,1.00
2019-02-17T12:59:19.166Z,1.00
2019-02-17T13:01:49.553Z,1.00
2019-02-17T13:04:19.977Z,1.00
2019-02-17T13:06:50.652Z,1.00
2019-02-17T13:09:22.290Z,1.00
2019-02-17T13:11:52.973Z,1.00
2019-02-17T13:14:23.628Z,1.00
2019-02-17T13:16:54.517Z,1.00
2019-02-17T13:19:26.266Z,1.00
2019-02-17T13:21:56.707Z,1.00
2019-02-17T13:24:27.760Z,1.00
2019-02-17T13:26:58.174Z,1.00
2019-02-17T13:29:28.774Z,1.00
2019-02-17T13:31:59.466Z,1.00
2019-02-17T13:34:31.599Z,1.00
2019-02-17T13:37:02.283Z,1.00
2019-02-17T13:39:32.945Z,1.00
2019-02-17T13:42:04.401Z,1.00
2019-02-17T13:44:34.887Z,1.00
2019-02-17T13:47:05.626Z,1.00
2019-02-17T13:49:36.330Z,1.00
2019-02-17T13:52:06.755Z,1.00
2019-02-17T13:54:37.186Z,1.00
2019-02-17T13:57:08.007Z,1.00
2019-02-17T13:59:38.421Z,1.00
2019-02-17T14:02:09.446Z,1.00
2019-02-17T14:04:40.103Z,1.00
2019-02-17T14:07:10.519Z,1.00
2019-02-17T14:09:40.917Z,1.00
2019-02-17T14:12:11.328Z,1.00
2019-02-17T14:14:42.007Z,1.00
2019-02-17T14:17:12.418Z,1.00
2019-02-17T14:19:42.733Z,1.00
2019-02-17T14:22:13.145Z,1.00
2019-02-17T14:24:43.579Z,1.00
2019-02-17T14:27:14.274Z,1.00
2019-02-17T14:29:44.954Z,1.00
2019-02-17T14:32:15.743Z,1.00
2019-02-17T14:34:46.106Z,1.00
2019-02-17T14:37:16.577Z,1.00
2019-02-17T14:39:47.694Z,1.00
2019-02-17T14:42:18.029Z,1.00
2019-02-17T14:44:48.697Z,1.00
2019-02-17T14:47:19.396Z,1.00
2019-02-17T14:49:49.838Z,1.00
2019-02-17T14:52:20.570Z,1.00
2019-02-17T14:54:50.958Z,1.00
2019-02-17T14:57:21.365Z,1.00
2019-02-17T14:59:51.691Z,1.00
2019-02-17T15:02:22.354Z,1.00
2019-02-17T15:04:52.771Z,1.00
2019-02-17T15:07:23.503Z,1.00
2019-02-17T15:09:53.929Z,1.00
2019-02-17T15:12:24.395Z,1.00
2019-02-17T15:14:54.768Z,1.00
2019-02-17T15:17:25.856Z,1.00
2019-02-17T15:19:56.229Z,1.00
2019-02-17T15:22:26.868Z,1.00
2019-02-17T15:24:57.582Z,1.00
2019-02-17T15:27:28.661Z,1.00
2019-02-17T15:29:59.051Z,1.00
2019-02-17T15:32:29.437Z,1.00
2019-02-17T15:35:00.282Z,1.00
2019-02-17T15:37:31.238Z,1.00
2019-02-17T15:40:01.675Z,1.00
2019-02-17T15:42:32.422Z,1.00
2019-02-17T15:45:02.804Z,1.00
2019-02-17T15:47:34.234Z,1.00
2019-02-17T15:50:04.863Z,1.00
2019-02-17T15:52:36.257Z,1.00
2019-02-17T15:55:07.665Z,1.00
2019-02-17T15:57:38.554Z,1.00
2019-02-17T16:00:12.190Z,1.00
2019-02-17T16:02:43.347Z,1.00
2019-02-17T16:05:14.395Z,1.00
2019-02-17T16:07:44.861Z,1.00
2019-02-17T16:10:15.332Z,1.00
2019-02-17T16:12:45.902Z,1.00
2019-02-17T16:15:16.532Z,1.00
2019-02-17T16:17:47.270Z,1.00
2019-02-17T16:20:17.860Z,1.00
2019-02-17T16:22:48.591Z,1.00
2019-02-17T16:25:20.132Z,1.00
2019-02-17T16:27:50.887Z,1.00
2019-02-17T16:30:21.622Z,1.00
2019-02-17T16:32:52.096Z,1.00
2019-02-17T16:35:22.559Z,1.00
2019-02-17T16:37:53.288Z,1.00
2019-02-17T16:40:23.604Z,1.00
2019-02-17T16:42:56.044Z,1.00
2019-02-17T16:45:27.293Z,1.00
2019-02-17T16:47:57.999Z,1.00
2019-02-17T16:50:28.735Z,1.00
2019-02-17T16:52:59.214Z,1.00
2019-02-17T16:55:29.917Z,1.00
2019-02-17T16:58:00.511Z,1.00
2019-02-17T17:00:31.308Z,1.00
2019-02-17T17:03:01.826Z,1.00
2019-02-17T17:05:32.201Z,1.00
2019-02-17T17:08:02.586Z,1.00
2019-02-17T17:10:34.191Z,1.00
2019-02-17T17:13:05.731Z,1.00
2019-02-17T17:15:36.494Z,1.00
2019-02-17T17:18:07.619Z,1.00
2019-02-17T17:20:38.240Z,1.00
2019-02-17T17:23:08.996Z,1.00
2019-02-17T17:25:40.089Z,1.00
2019-02-17T17:28:11.327Z,1.00
2019-02-17T17:30:42.064Z,1.00
2019-02-17T17:33:13.094Z,1.30
2019-02-17T17:35:44.121Z,1.90
2019-02-17T17:38:15.728Z,2.00
2019-02-17T17:40:46.366Z,2.90
2019-02-17T17:43:16.881Z,3.40
2019-02-17T17:45:47.929Z,3.30
2019-02-17T17:48:19.013Z,4.10
2019-02-17T17:50:49.917Z,4.60
2019-02-17T17:53:20.369Z,5.00
2019-02-17T17:55:50.913Z,5.20
2019-02-17T17:58:22.405Z,5.50
2019-02-17T18:00:53.451Z,5.70
2019-02-17T18:03:24.728Z,5.80
2019-02-17T18:05:55.510Z,5.80
2019-02-17T18:08:26.470Z,6.10
2019-02-17T18:10:57.424Z,6.60
2019-02-17T18:13:28.627Z,7.00
2019-02-17T18:15:59.730Z,7.40
2019-02-17T18:18:31.259Z,7.80
2019-02-17T18:21:01.853Z,8.30
2019-02-17T18:23:33.015Z,8.30
2019-02-17T18:26:04.015Z,8.10
2019-02-17T18:28:34.494Z,8.60
2019-02-17T18:31:07.001Z,9.20
2019-02-17T18:33:37.550Z,9.40
2019-02-17T18:36:09.030Z,9.80
2019-02-17T18:38:39.561Z,10.00
2019-02-17T18:41:10.417Z,9.90
2019-02-17T18:43:41.225Z,9.80
2019-02-17T18:46:11.760Z,9.40
2019-02-17T18:51:13.299Z,9.30
2019-02-17T18:53:43.653Z,10.20
2019-02-17T18:56:17.128Z,10.70
2019-02-17T18:58:51.161Z,10.80
2019-02-17T19:01:23.531Z,11.20
2019-02-17T19:03:56.529Z,11.50
2019-02-17T19:06:31.661Z,11.60
2019-02-17T19:09:05.386Z,11.80
2019-02-17T19:11:38.836Z,11.80
2019-02-17T19:14:09.743Z,12.00
2019-02-17T19:16:40.230Z,12.10
2019-02-17T19:19:14.959Z,12.50
2019-02-17T19:21:46.798Z,12.70
2019-02-17T19:24:19.626Z,12.60
2019-02-17T19:26:51.358Z,12.00
2019-02-17T19:29:25.241Z,12.90
2019-02-17T19:31:57.157Z,13.20
2019-02-17T19:34:29.007Z,13.90
2019-02-17T19:37:05.596Z,13.70
2019-02-17T19:39:36.330Z,13.90
2019-02-17T19:42:10.664Z,13.80
2019-02-17T19:44:43.076Z,13.70
2019-02-17T19:47:14.146Z,13.30
2019-02-17T19:49:48.090Z,14.10
2019-02-17T19:52:19.969Z,14.00
2019-02-17T19:54:52.797Z,14.90
2019-02-17T19:57:25.204Z,14.40
2019-02-17T19:59:57.256Z,14.70
2019-02-17T20:02:48.077Z,14.80
2019-02-17T20:05:20.769Z,14.80
2019-02-17T20:07:53.050Z,14.50
2019-02-17T20:10:24.876Z,14.70
2019-02-17T20:12:57.079Z,15.20
2019-02-17T20:15:30.948Z,14.70
2019-02-17T20:18:02.043Z,15.00
2019-02-17T20:20:36.018Z,15.80
2019-02-17T20:23:06.460Z,16.20
2019-02-17T20:25:40.471Z,16.10
2019-02-17T20:28:15.375Z,16.90
2019-02-17T20:30:47.144Z,17.20
2019-02-17T20:33:20.531Z,17.70
2019-02-17T20:35:51.362Z,17.30
2019-02-17T20:38:22.743Z,16.80
2019-02-17T20:40:55.329Z,16.60
2019-02-17T20:43:28.482Z,16.20
2019-02-17T20:46:01.063Z,17.30
2019-02-17T20:48:33.156Z,17.30
2019-02-17T20:51:04.294Z,17.20
2019-02-17T20:53:38.173Z,17.50
2019-02-17T20:56:10.528Z,17.10
2019-02-17T20:58:41.438Z,17.80
2019-02-17T21:01:12.345Z,17.40
2019-02-17T21:03:42.757Z,17.90
2019-02-17T21:06:13.195Z,17.20
2019-02-17T21:08:43.935Z,17.80
2019-02-17T21:11:16.161Z,18.00
2019-02-17T21:13:46.534Z,17.40
2019-02-17T21:16:18.860Z,17.40
2019-02-17T21:18:49.358Z,17.30
2019-02-17T21:21:22.393Z,16.40
2019-02-17T21:23:54.363Z,16.10
2019-02-17T21:26:26.421Z,16.60
2019-02-17T21:28:58.996Z,16.10
2019-02-17T21:31:31.454Z,15.70
2019-02-17T21:34:03.750Z,15.70
2019-02-17T21:36:36.743Z,15.50
2019-02-17T21:39:08.831Z,15.40
2019-02-17T21:41:40.602Z,15.40
2019-02-17T21:44:11.206Z,15.60
2019-02-17T21:46:46.781Z,14.50
2019-02-17T21:49:17.517Z,14.60
2019-02-17T21:51:48.355Z,14.70
2019-02-17T21:54:21.657Z,14.40
2019-02-17T21:56:55.030Z,14.20
2019-02-17T21:59:26.570Z,14.60
2019-02-17T22:01:58.720Z,14.00
2019-02-17T22:04:31.582Z,14.40
2019-02-17T22:07:05.322Z,14.40
2019-02-17T22:09:38.543Z,14.10
2019-02-17T22:12:09.829Z,14.70
2019-02-17T22:14:43.697Z,14.00
2019-02-17T22:17:15.763Z,14.30
2019-02-17T22:19:47.043Z,14.30
2019-02-17T22:22:17.796Z,14.00
2019-02-17T22:24:49.606Z,14.00
2019-02-17T22:27:20.393Z,13.70
2019-02-17T22:29:51.902Z,13.90
2019-02-17T22:32:22.560Z,13.90
2019-02-17T22:34:54.492Z,13.90
2019-02-17T22:37:25.245Z,14.60
2019-02-17T22:39:57.094Z,14.80
2019-02-17T22:42:29.296Z,14.60
2019-02-17T22:44:59.971Z,14.80
2019-02-17T22:47:33.015Z,14.40
2019-02-17T22:50:03.463Z,14.20
2019-02-17T22:52:34.237Z,14.40
2019-02-17T22:55:06.789Z,15.10
2019-02-17T22:57:38.649Z,15.50
2019-02-17T23:00:48.141Z,14.50
2019-02-17T23:03:18.584Z,15.50
2019-02-17T23:05:53.107Z,15.50
2019-02-17T23:08:23.537Z,14.80
2019-02-17T23:10:55.760Z,15.50
2019-02-17T23:13:26.256Z,15.60
2019-02-17T23:15:59.923Z,15.60
2019-02-17T23:18:32.129Z,16.40
2019-02-17T23:21:03.450Z,16.10
2019-02-17T23:23:36.378Z,15.60
2019-02-17T23:26:09.276Z,16.00
2019-02-17T23:28:39.791Z,16.60
2019-02-17T23:31:11.332Z,16.80
2019-02-17T23:33:46.963Z,16.10
2019-02-17T23:36:20.961Z,16.20
2019-02-17T23:38:53.698Z,16.40
2019-02-17T23:41:24.069Z,16.20
2019-02-17T23:43:57.831Z,15.80
2019-02-17T23:46:28.933Z,16.40
2019-02-17T23:48:59.822Z,16.30
2019-02-17T23:51:30.772Z,17.40
2019-02-17T23:54:02.997Z,17.10
2019-02-17T23:56:37.553Z,17.40
2019-02-17T23:59:09.169Z,17.70
